Time;durP1;ratioP1;P1;durP2;ratioP2;P2;SDS_P1;SDS_P2;PMS_P1;PMS_P2;Temp;Humidity;BMP_temperature;BMP_pressure;BME280_temperature;BME280_humidity;BME280_pressure;Samples;Min_cycle;Max_cycle;Signal;HPM_P1;HPM_P2
2022/12/20 00:00:11;;;;;;;3.95;3.40;;;;;;;13.08;56.43;100975.13;675064;29;1378;-79
2022/12/20 00:00:31;;;;;;;3.28;2.97;;;;;;;13.05;56.61;100968.09;674993;29;1273;-78
2022/12/20 00:00:52;;;;;;;3.20;2.90;;;;;;;13.09;56.18;100959.44;675131;29;1306;-79
2022/12/20 00:01:18;;;;;;;3.00;2.70;;;;;;;13.12;56.38;100974.34;675097;29;1248;-79
2022/12/20 00:01:39;;;;;;;3.53;2.80;;;;;;;13.18;56.18;100978.81;675026;29;1153;-79
2022/12/20 00:01:59;;;;;;;3.63;2.88;;;;;;;13.12;56.05;100966.47;670043;29;1052;-79
2022/12/20 00:02:20;;;;;;;3.70;2.80;;;;;;;13.17;56.20;100972.69;672581;29;1084;-78
2022/12/20 00:02:40;;;;;;;3.10;2.80;;;;;;;13.18;56.08;100978.81;672650;29;1193;-79
2022/12/20 00:03:01;;;;;;;3.20;2.90;;;;;;;13.15;55.88;100963.94;669995;29;1046;-79
2022/12/20 00:03:22;;;;;;;3.50;3.20;;;;;;;13.18;56.02;100971.84;672694;29;1012;-79
2022/12/20 00:03:43;;;;;;;3.60;3.30;;;;;;;13.15;56.06;100964.81;675046;29;1028;-78
2022/12/20 00:04:04;;;;;;;3.65;3.20;;;;;;;13.16;55.96;100966.56;672661;29;1088;-78
2022/12/20 00:04:25;;;;;;;3.40;3.10;;;;;;;13.26;55.88;100982.47;672550;29;1338;-79
2022/12/20 00:04:46;;;;;;;3.30;3.00;;;;;;;13.18;55.92;100973.56;672609;29;1190;-78
2022/12/20 00:05:07;;;;;;;2.97;2.78;;;;;;;13.16;55.65;100963.06;675079;29;1011;-79
2022/12/20 00:05:27;;;;;;;2.80;2.60;;;;;;;13.19;55.63;100964.84;677822;29;1227;-79
2022/12/20 00:05:48;;;;;;;3.00;2.80;;;;;;;13.21;55.87;100966.66;675218;29;766;-79
2022/12/20 00:06:11;;;;;;;3.50;3.20;;;;;;;13.22;55.93;100970.16;671634;29;984;-78
2022/12/20 00:06:34;;;;;;;3.50;3.20;;;;;;;13.24;55.51;100963.22;671913;29;1276;-78
2022/12/20 00:06:54;;;;;;;3.50;3.20;;;;;;;13.21;55.89;100966.66;672398;29;1203;-79
2022/12/20 00:07:15;;;;;;;3.30;3.00;;;;;;;13.22;55.56;100957.06;672576;29;1369;-79
2022/12/20 00:07:35;;;;;;;3.23;2.93;;;;;;;13.26;55.73;100964.13;672496;29;1974;-79
2022/12/20 00:07:56;;;;;;;3.40;3.10;;;;;;;13.23;55.47;100958.84;672149;29;1445;-79
2022/12/20 00:08:16;;;;;;;3.60;3.30;;;;;;;13.31;55.42;100965.09;675211;29;1155;-79
2022/12/20 00:08:37;;;;;;;4.20;3.40;;;;;;;13.28;55.35;100960.69;675194;29;1063;-79
2022/12/20 00:09:00;;;;;;;3.72;3.30;;;;;;;13.29;55.45;100958.97;675116;29;1138;-78
2022/12/20 00:09:21;;;;;;;3.50;2.88;;;;;;;13.32;55.41;100966.00;675061;29;1259;-76
2022/12/20 00:09:41;;;;;;;3.60;2.80;;;;;;;13.24;55.07;100963.22;675056;29;1182;-77
2022/12/20 00:10:02;;;;;;;4.27;2.90;;;;;;;13.30;55.44;100958.09;675169;29;1388;-77
2022/12/20 00:10:23;;;;;;;4.83;3.13;;;;;;;13.32;55.29;100956.38;670017;29;1034;-77
2022/12/20 00:10:44;;;;;;;3.88;3.00;;;;;;;13.30;55.64;100968.59;669962;29;1193;-77
2022/12/20 00:11:08;;;;;;;3.47;2.80;;;;;;;13.30;55.32;100963.34;667529;29;1123;-77
2022/12/20 00:11:29;;;;;;;3.20;2.70;;;;;;;13.30;55.57;100958.09;667548;29;1088;-77
2022/12/20 00:11:50;;;;;;;3.60;2.95;;;;;;;13.35;55.34;100959.09;675101;29;1077;-77
2022/12/20 00:12:10;;;;;;;3.40;3.00;;;;;;;13.34;55.06;100949.44;675032;29;1156;-77
2022/12/20 00:12:31;;;;;;;3.25;2.95;;;;;;;13.36;55.18;100952.09;669724;29;1177;-77
2022/12/20 00:12:51;;;;;;;3.00;2.70;;;;;;;13.40;55.29;100957.41;670100;29;1193;-77
2022/12/20 00:13:12;;;;;;;3.45;2.80;;;;;;;13.36;55.22;100947.75;669998;29;1089;-77
2022/12/20 00:13:34;;;;;;;3.90;3.08;;;;;;;13.39;55.10;100953.03;669981;29;1085;-77
2022/12/20 00:13:55;;;;;;;4.00;2.92;;;;;;;13.38;55.06;100939.88;672558;29;1172;-77
2022/12/20 00:14:16;;;;;;;3.20;2.90;;;;;;;13.37;54.94;100944.28;677675;29;991;-77
2022/12/20 00:14:37;;;;;;;3.17;2.80;;;;;;;13.40;55.28;100951.31;677818;29;1006;-77
2022/12/20 00:14:57;;;;;;;3.40;3.10;;;;;;;13.38;54.84;100940.78;677675;29;1150;-77
2022/12/20 00:15:18;;;;;;;3.80;3.00;;;;;;;13.42;54.96;100946.97;675141;29;1170;-77
2022/12/20 00:15:39;;;;;;;3.10;2.70;;;;;;;13.36;54.99;100937.25;677650;29;1118;-77
2022/12/20 00:16:14;;;;;;;3.80;2.73;;;;;;;13.45;54.76;100940.91;675092;29;1241;-77
2022/12/20 00:16:36;;;;;;;4.25;3.10;;;;;;;13.47;55.07;100947.94;675013;29;1047;-77
2022/12/20 00:16:56;;;;;;;4.35;3.00;;;;;;;13.51;54.71;100952.38;672393;29;1229;-77
2022/12/20 00:17:17;;;;;;;4.10;2.90;;;;;;;13.43;55.02;100943.50;672515;29;1276;-77
2022/12/20 00:17:37;;;;;;;3.28;2.70;;;;;;;13.55;54.81;100958.56;669942;29;1228;-77
2022/12/20 00:17:59;;;;;;;2.75;2.55;;;;;;;13.49;54.55;100953.19;672679;29;1135;-77
2022/12/20 00:18:19;;;;;;;2.70;2.50;;;;;;;13.59;54.49;100949.03;675214;29;1093;-76
2022/12/20 00:18:41;;;;;;;2.70;2.50;;;;;;;13.57;54.56;100942.03;675020;29;1230;-77
2022/12/20 00:19:05;;;;;;;3.00;2.70;;;;;;;13.53;54.31;100961.16;675147;29;1431;-78
2022/12/20 00:19:26;;;;;;;3.03;2.70;;;;;;;13.63;54.30;100962.22;672626;29;1075;-78
2022/12/20 00:19:47;;;;;;;3.00;2.70;;;;;;;13.60;54.47;100949.06;672645;29;759;-77
2022/12/20 00:20:08;;;;;;;3.00;2.60;;;;;;;13.60;54.77;100935.94;674982;29;1255;-78
2022/12/20 00:20:28;;;;;;;3.20;2.70;;;;;;;13.61;54.13;100932.47;675145;29;1257;-77
2022/12/20 00:20:57;;;;;;;3.30;2.70;;;;;;;13.65;54.40;100944.75;670044;29;849;-77
2022/12/20 00:21:19;;;;;;;3.03;2.72;;;;;;;13.65;54.18;100946.53;670102;29;1117;-77
2022/12/20 00:21:39;;;;;;;3.78;2.80;;;;;;;13.64;54.21;100937.75;672475;29;1221;-77
2022/12/20 00:22:00;;;;;;;3.88;2.90;;;;;;;13.68;54.19;100947.47;672666;29;938;-77
2022/12/20 00:22:20;;;;;;;4.60;3.00;;;;;;;13.71;53.93;100958.00;675094;29;1109;-77
2022/12/20 00:22:41;;;;;;;3.90;2.90;;;;;;;13.76;54.04;100957.22;669752;29;1351;-77
2022/12/20 00:23:02;;;;;;;4.07;2.80;;;;;;;13.72;54.13;100951.03;669985;29;1010;-77
2022/12/20 00:23:23;;;;;;;3.85;2.70;;;;;;;13.73;54.02;100954.50;667452;29;1257;-77
2022/12/20 00:23:43;;;;;;;4.85;2.88;;;;;;;13.75;54.04;100950.19;669760;29;1164;-77
2022/12/20 00:24:05;;;;;;;4.53;2.77;;;;;;;13.78;53.87;100945.00;672615;29;1229;-77
2022/12/20 00:24:26;;;;;;;4.00;2.72;;;;;;;13.82;53.46;100955.56;672488;29;1094;-77
2022/12/20 00:24:46;;;;;;;2.80;2.60;;;;;;;13.80;53.48;100938.03;675113;29;845;-77
2022/12/20 00:25:07;;;;;;;2.90;2.60;;;;;;;13.84;53.44;100945.97;675012;29;1047;-77
2022/12/20 00:25:28;;;;;;;2.78;2.58;;;;;;;13.83;53.64;100945.97;672646;29;1273;-78
2022/12/20 00:25:48;;;;;;;2.70;2.50;;;;;;;13.81;53.69;100950.28;672138;29;1290;-77
2022/12/20 00:26:12;;;;;;;4.03;2.60;;;;;;;13.81;53.71;100950.28;675135;29;1220;-77
2022/12/20 00:26:34;;;;;;;4.50;2.60;;;;;;;13.80;53.35;100946.78;672499;29;1160;-77
2022/12/20 00:26:54;;;;;;;4.45;2.80;;;;;;;13.76;53.47;100941.47;672496;29;779;-77
2022/12/20 00:27:15;;;;;;;2.90;2.65;;;;;;;13.86;53.54;100959.13;675060;29;1233;-77
2022/12/20 00:27:36;;;;;;;2.88;2.60;;;;;;;13.79;53.50;100958.16;672491;29;1923;-77
2022/12/20 00:27:57;;;;;;;2.60;2.40;;;;;;;13.83;53.70;100965.19;677584;29;1137;-77
2022/12/20 00:28:17;;;;;;;3.13;2.47;;;;;;;13.80;53.51;100951.13;677827;29;984;-77
2022/12/20 00:28:40;;;;;;;4.37;2.50;;;;;;;13.84;53.84;100966.09;677619;29;1140;-77
2022/12/20 00:29:01;;;;;;;4.25;2.50;;;;;;;13.77;53.51;100959.84;672513;29;1410;-77
2022/12/20 00:29:21;;;;;;;3.85;2.35;;;;;;;13.79;53.52;100962.50;675117;29;1191;-77
2022/12/20 00:29:42;;;;;;;3.10;2.53;;;;;;;13.79;53.54;100958.16;672614;29;1154;-77
2022/12/20 00:30:05;;;;;;;3.40;2.75;;;;;;;13.80;53.61;100967.78;669909;29;1031;-77
2022/12/20 00:30:25;;;;;;;4.00;3.00;;;;;;;13.79;53.71;100957.25;669842;29;1318;-77
2022/12/20 00:30:52;;;;;;;3.40;2.80;;;;;;;13.85;53.71;100968.72;669959;29;1191;-77
2022/12/20 00:31:15;;;;;;;3.45;2.80;;;;;;;13.78;53.49;100961.59;672332;29;1314;-77
2022/12/20 00:31:36;;;;;;;3.00;2.60;;;;;;;13.79;53.52;100959.88;675084;29;1389;-77
2022/12/20 00:31:56;;;;;;;3.00;2.70;;;;;;;13.80;53.63;100959.00;677674;29;1024;-78
2022/12/20 00:32:17;;;;;;;3.20;2.90;;;;;;;13.78;53.27;100963.34;677715;29;1205;-77
2022/12/20 00:32:37;;;;;;;3.10;2.90;;;;;;;13.81;53.58;100958.16;677653;29;1074;-77
2022/12/20 00:32:58;;;;;;;2.90;2.70;;;;;;;13.83;53.71;100959.09;672539;29;1207;-77
2022/12/20 00:33:19;;;;;;;3.83;2.73;;;;;;;13.85;53.63;100957.38;672433;29;1218;-78
2022/12/20 00:33:40;;;;;;;4.20;2.90;;;;;;;13.84;53.32;100955.59;672431;29;1092;-77
2022/12/20 00:34:03;;;;;;;4.95;2.85;;;;;;;13.85;53.57;100954.75;672467;29;1381;-77
2022/12/20 00:34:23;;;;;;;3.78;2.70;;;;;;;13.79;53.50;100944.13;667524;29;1254;-77
2022/12/20 00:34:44;;;;;;;3.90;2.60;;;;;;;13.82;53.40;100952.94;669789;29;1195;-77
2022/12/20 00:35:05;;;;;;;3.30;2.60;;;;;;;13.79;53.58;100949.38;672501;29;1131;-77
2022/12/20 00:35:26;;;;;;;2.97;2.53;;;;;;;13.83;53.18;100948.59;675115;29;1221;-77
2022/12/20 00:35:47;;;;;;;2.80;2.58;;;;;;;13.84;53.29;100945.09;675148;29;839;-77
2022/12/20 00:36:08;;;;;;;2.80;2.60;;;;;;;13.81;53.37;100939.78;677581;29;1086;-78
2022/12/20 00:36:30;;;;;;;3.03;2.80;;;;;;;13.84;53.46;100955.59;677594;29;1123;-77
2022/12/20 00:36:51;;;;;;;3.00;2.80;;;;;;;13.80;53.27;100945.91;672394;29;814;-77
2022/12/20 00:37:11;;;;;;;3.30;3.00;;;;;;;13.85;53.33;100945.09;667365;29;1157;-77
2022/12/20 00:37:32;;;;;;;3.30;3.00;;;;;;;13.84;53.39;100947.72;670028;29;1118;-77
2022/12/20 00:37:53;;;;;;;3.45;2.90;;;;;;;13.82;53.40;100952.03;672499;29;1239;-77
2022/12/20 00:38:13;;;;;;;3.85;2.67;;;;;;;13.80;53.48;100951.13;672452;29;972;-77
2022/12/20 00:38:34;;;;;;;4.10;2.60;;;;;;;13.86;53.61;100959.13;675131;29;1143;-78
2022/12/20 00:38:56;;;;;;;3.90;2.70;;;;;;;13.82;53.57;100950.31;669871;29;1148;-77
2022/12/20 00:39:17;;;;;;;3.20;2.70;;;;;;;13.76;53.48;100941.47;672503;29;1120;-77
2022/12/20 00:39:38;;;;;;;2.90;2.60;;;;;;;13.77;53.67;100943.22;669861;29;1154;-77
2022/12/20 00:39:59;;;;;;;2.93;2.70;;;;;;;13.78;53.46;100948.47;672182;29;1279;-77
2022/12/20 00:40:19;;;;;;;3.00;2.70;;;;;;;13.79;53.50;100941.50;672485;29;1104;-77
2022/12/20 00:40:40;;;;;;;3.08;2.78;;;;;;;13.80;53.39;100944.16;674982;29;1270;-77
2022/12/20 00:41:11;;;;;;;2.90;2.60;;;;;;;13.79;53.51;100936.25;674988;29;1063;-77
2022/12/20 00:41:33;;;;;;;2.85;2.60;;;;;;;13.77;53.71;100945.84;677539;29;976;-77
2022/12/20 00:41:54;;;;;;;3.20;2.70;;;;;;;13.79;53.61;100952.91;669974;29;2059;-77
2022/12/20 00:42:14;;;;;;;3.40;2.60;;;;;;;13.75;53.82;100945.81;669863;29;1554;-77
2022/12/20 00:42:35;;;;;;;3.58;2.80;;;;;;;13.76;53.69;100946.72;669849;29;956;-77
2022/12/20 00:42:56;;;;;;;3.22;2.80;;;;;;;13.74;53.59;100943.16;675120;29;1011;-77
2022/12/20 00:43:16;;;;;;;3.00;2.80;;;;;;;13.77;53.87;100945.84;677815;29;1016;-77
2022/12/20 00:43:38;;;;;;;3.00;2.60;;;;;;;13.71;53.54;100931.75;677707;29;1220;-77
2022/12/20 00:43:59;;;;;;;3.13;2.70;;;;;;;13.80;53.54;100938.03;675024;29;1214;-76
2022/12/20 00:44:20;;;;;;;3.60;2.83;;;;;;;13.71;53.74;100923.03;675127;29;1190;-77
2022/12/20 00:44:40;;;;;;;4.43;2.95;;;;;;;13.77;53.39;100920.50;675008;29;1119;-77
2022/12/20 00:45:02;;;;;;;4.50;2.80;;;;;;;13.83;53.53;100938.09;675100;29;1136;-77
2022/12/20 00:45:22;;;;;;;3.95;2.65;;;;;;;13.78;53.49;100918.75;677684;29;1100;-77
2022/12/20 00:45:43;;;;;;;3.23;2.60;;;;;;;13.78;53.58;100922.25;675028;29;1205;-77
2022/12/20 00:46:05;;;;;;;3.08;2.60;;;;;;;13.80;53.59;100927.53;667364;29;998;-76
2022/12/20 00:46:26;;;;;;;3.00;2.65;;;;;;;13.79;53.59;100925.78;669793;29;1167;-77
2022/12/20 00:46:47;;;;;;;2.97;2.67;;;;;;;13.87;53.35;100933.78;677474;29;1251;-77
2022/12/20 00:47:07;;;;;;;3.00;2.70;;;;;;;13.81;53.30;100910.94;674990;29;960;-77
2022/12/20 00:47:28;;;;;;;2.95;2.65;;;;;;;13.80;53.19;100923.19;672536;29;1109;-78
2022/12/20 00:47:49;;;;;;;2.87;2.57;;;;;;;13.78;53.44;100918.75;675025;29;1950;-77
2022/12/20 00:48:09;;;;;;;3.50;2.50;;;;;;;13.77;53.64;100911.75;669842;29;1071;-77
2022/12/20 00:48:31;;;;;;;4.15;2.60;;;;;;;13.82;53.39;100920.56;672419;29;1288;-77
2022/12/20 00:48:53;;;;;;;4.90;2.83;;;;;;;13.78;53.53;100908.28;669917;29;1242;-77
2022/12/20 00:49:15;;;;;;;4.32;2.70;;;;;;;13.75;53.41;100908.22;672497;29;1171;-77
2022/12/20 00:49:35;;;;;;;3.53;2.67;;;;;;;13.77;53.54;100917.00;667186;29;1097;-77
2022/12/20 00:49:56;;;;;;;2.90;2.60;;;;;;;13.79;53.55;100907.41;669917;29;1084;-77
2022/12/20 00:50:17;;;;;;;2.90;2.70;;;;;;;13.74;53.55;100912.59;669992;29;941;-77
2022/12/20 00:50:37;;;;;;;3.00;2.80;;;;;;;13.73;53.53;100912.53;672490;29;1017;-77
2022/12/20 00:51:00;;;;;;;2.93;2.73;;;;;;;13.69;53.55;100909.88;672426;29;1148;-78
2022/12/20 00:51:25;;;;;;;2.75;2.55;;;;;;;13.69;53.60;100904.63;677730;29;1062;-77
2022/12/20 00:51:46;;;;;;;2.80;2.60;;;;;;;13.68;53.58;100912.47;669773;29;1962;-77
2022/12/20 00:52:06;;;;;;;2.95;2.72;;;;;;;13.71;53.53;100908.16;672458;29;1005;-77
2022/12/20 00:52:27;;;;;;;3.17;2.87;;;;;;;13.75;53.64;100908.22;672078;29;1380;-77
2022/12/20 00:52:48;;;;;;;3.22;2.92;;;;;;;13.80;53.47;100911.81;669721;29;1189;-77
2022/12/20 00:53:09;;;;;;;2.90;2.70;;;;;;;13.74;53.72;100909.06;669884;29;1193;-77
2022/12/20 00:53:31;;;;;;;3.00;2.80;;;;;;;13.73;53.39;100895.09;669849;29;1260;-77
2022/12/20 00:53:52;;;;;;;2.90;2.60;;;;;;;13.81;53.27;100908.31;672588;29;1154;-77
2022/12/20 00:54:13;;;;;;;3.15;2.72;;;;;;;13.77;53.39;100904.75;672190;29;1312;-77
2022/12/20 00:54:33;;;;;;;3.13;2.63;;;;;;;13.75;52.98;100909.09;669898;29;1308;-77
2022/12/20 00:54:54;;;;;;;3.42;2.78;;;;;;;13.78;53.33;100908.28;672546;29;1234;-77
2022/12/20 00:55:40;;;;;;;3.20;2.57;;;;;;;13.90;53.34;100923.34;669909;29;1199;-77
2022/12/20 00:56:03;;;;;;;3.00;2.10;;;;;;;13.83;53.06;100914.50;669822;29;1160;-77
2022/12/20 00:56:23;;;;;;;3.20;2.38;;;;;;;13.90;52.98;100908.47;672592;29;963;-77
2022/12/20 00:56:44;;;;;;;2.60;2.40;;;;;;;13.74;53.27;100902.09;672147;29;892;-78
2022/12/20 00:57:04;;;;;;;3.70;2.50;;;;;;;13.76;53.31;100905.63;672425;29;1120;-77
2022/12/20 00:57:25;;;;;;;3.87;2.70;;;;;;;13.79;53.14;100913.56;672482;29;1287;-77
2022/12/20 00:57:46;;;;;;;4.40;2.90;;;;;;;13.78;53.26;100916.13;675020;29;1263;-77
2022/12/20 00:58:06;;;;;;;3.67;3.08;;;;;;;13.75;53.30;100908.22;672475;29;984;-77
2022/12/20 00:58:27;;;;;;;3.70;3.00;;;;;;;13.73;53.38;100907.31;675127;29;1057;-78
2022/12/20 00:58:48;;;;;;;3.90;3.10;;;;;;;13.76;53.37;100910.00;672489;29;1341;-77
2022/12/20 00:59:08;;;;;;;3.22;2.70;;;;;;;13.78;53.27;100921.38;669754;29;1208;-77
2022/12/20 00:59:29;;;;;;;2.90;2.60;;;;;;;13.76;52.93;100915.25;670027;29;1061;-76
2022/12/20 00:59:49;;;;;;;2.60;2.40;;;;;;;13.81;53.19;100914.47;667741;29;1150;-77
2022/12/20 01:00:10;;;;;;;3.10;2.70;;;;;;;13.83;53.03;100912.72;669806;29;1179;-77
2022/12/20 01:00:31;;;;;;;3.60;2.80;;;;;;;13.87;52.89;100916.28;677656;29;1215;-77
2022/12/20 01:00:52;;;;;;;3.80;2.70;;;;;;;13.92;52.58;100919.88;675209;29;1020;-78
2022/12/20 01:01:23;;;;;;;3.20;2.60;;;;;;;13.96;52.69;100924.31;675113;29;1139;-76
2022/12/20 01:01:44;;;;;;;3.22;2.65;;;;;;;13.81;52.94;100910.94;672428;29;1300;-77
2022/12/20 01:02:05;;;;;;;3.50;2.70;;;;;;;13.86;52.84;100917.16;669932;29;1098;-77
2022/12/20 01:02:26;;;;;;;3.90;2.67;;;;;;;13.88;52.81;100915.44;672624;29;1064;-77
2022/12/20 01:02:46;;;;;;;3.40;2.63;;;;;;;13.93;52.39;100915.50;670053;29;900;-76
2022/12/20 01:03:07;;;;;;;3.00;2.60;;;;;;;13.97;52.52;100920.81;672462;29;1045;-77
2022/12/20 01:03:28;;;;;;;2.80;2.60;;;;;;;13.89;52.38;100906.69;672723;29;1122;-76
2022/12/20 01:03:49;;;;;;;2.57;2.37;;;;;;;13.95;52.48;100919.91;675052;29;1144;-77
2022/12/20 01:04:10;;;;;;;2.50;2.30;;;;;;;13.95;52.43;100921.69;675057;29;1062;-77
2022/12/20 01:04:31;;;;;;;2.65;2.40;;;;;;;13.98;52.43;100919.09;675423;29;1090;-76
2022/12/20 01:04:51;;;;;;;3.30;2.70;;;;;;;13.97;52.26;100926.06;677702;29;1092;-76
2022/12/20 01:05:12;;;;;;;3.10;2.70;;;;;;;13.95;52.55;100922.53;674561;29;1169;-77
2022/12/20 01:05:33;;;;;;;3.55;2.83;;;;;;;13.94;52.52;100917.25;667276;29;1193;-78
2022/12/20 01:05:56;;;;;;;3.53;2.60;;;;;;;13.91;52.51;100915.50;670068;29;888;-77
2022/12/20 01:06:17;;;;;;;3.63;2.60;;;;;;;13.98;52.57;100930.50;672428;29;990;-76
2022/12/20 01:06:38;;;;;;;3.45;2.60;;;;;;;13.98;52.43;100922.63;669779;29;1008;-77
2022/12/20 01:06:58;;;;;;;3.05;2.70;;;;;;;13.96;52.54;100921.69;672349;29;1110;-76
2022/12/20 01:07:19;;;;;;;3.40;3.00;;;;;;;13.95;52.44;100916.44;675033;29;1076;-77
2022/12/20 01:07:40;;;;;;;3.50;2.90;;;;;;;13.96;52.37;100910.31;667226;29;1927;-76
2022/12/20 01:08:00;;;;;;;3.30;2.80;;;;;;;14.01;52.35;100927.00;669888;29;1166;-77
2022/12/20 01:08:23;;;;;;;3.20;2.60;;;;;;;13.97;52.17;100915.56;672488;29;1112;-77
2022/12/20 01:08:44;;;;;;;2.78;2.40;;;;;;;13.94;52.39;100920.78;669752;29;1088;-77
2022/12/20 01:09:05;;;;;;;3.40;2.60;;;;;;;13.93;52.51;100923.38;669713;29;1104;-77
2022/12/20 01:09:25;;;;;;;3.00;2.50;;;;;;;13.95;52.30;100912.06;672235;29;1105;-77
2022/12/20 01:09:46;;;;;;;3.05;2.50;;;;;;;13.92;52.44;100912.00;669742;29;836;-77
2022/12/20 01:10:07;;;;;;;2.85;2.45;;;;;;;13.92;52.23;100919.00;672220;29;1067;-77
2022/12/20 01:10:29;;;;;;;2.72;2.40;;;;;;;13.91;52.53;100909.34;669713;29;1130;-77
2022/12/20 01:11:00;;;;;;;2.92;2.60;;;;;;;13.98;52.44;100933.13;672189;29;1275;-77
2022/12/20 01:11:27;;;;;;;3.80;2.60;;;;;;;13.93;52.40;100916.41;674930;29;1071;-77
2022/12/20 01:11:47;;;;;;;4.18;2.60;;;;;;;13.93;52.38;100918.13;674813;29;1188;-77
2022/12/20 01:12:08;;;;;;;2.90;2.60;;;;;;;13.92;52.36;100916.38;672332;29;1076;-77
2022/12/20 01:12:29;;;;;;;2.80;2.50;;;;;;;13.90;52.17;100916.34;672146;29;1354;-77
2022/12/20 01:12:50;;;;;;;2.70;2.50;;;;;;;13.94;52.40;100926.03;674904;29;1296;-77
2022/12/20 01:13:11;;;;;;;2.67;2.47;;;;;;;13.90;52.65;100924.19;672319;29;1108;-77
2022/12/20 01:13:33;;;;;;;2.80;2.60;;;;;;;13.89;52.51;100917.19;672270;29;973;-77
2022/12/20 01:13:57;;;;;;;3.00;2.70;;;;;;;13.89;52.57;100932.94;669677;29;1247;-77
2022/12/20 01:14:17;;;;;;;2.90;2.70;;;;;;;13.89;52.62;100922.44;674916;29;972;-77
2022/12/20 01:14:38;;;;;;;2.93;2.70;;;;;;;13.94;52.43;100927.75;672213;29;997;-77
2022/12/20 01:14:59;;;;;;;2.80;2.60;;;;;;;13.97;52.38;100938.31;672166;29;890;-77
2022/12/20 01:15:20;;;;;;;3.20;2.78;;;;;;;13.93;52.53;100923.38;672361;29;1145;-77
2022/12/20 01:15:40;;;;;;;2.95;2.65;;;;;;;13.93;52.14;100918.13;669644;29;1294;-77
2022/12/20 01:16:28;;;;;;;3.30;2.67;;;;;;;13.94;52.35;100926.03;669711;29;1282;-77
2022/12/20 01:16:49;;;;;;;3.17;2.50;;;;;;;13.90;52.42;100918.97;674651;29;817;-77
2022/12/20 01:17:09;;;;;;;3.55;2.58;;;;;;;13.86;52.28;100922.41;677455;29;1058;-77
2022/12/20 01:17:30;;;;;;;3.30;2.40;;;;;;;13.88;52.51;100923.31;677708;29;1078;-77
2022/12/20 01:17:50;;;;;;;3.80;2.60;;;;;;;13.91;52.58;100923.38;677609;29;729;-77
2022/12/20 01:18:11;;;;;;;2.90;2.50;;;;;;;13.88;52.39;100918.06;675033;29;1119;-77
2022/12/20 01:18:32;;;;;;;3.38;2.60;;;;;;;13.93;52.48;100924.28;675017;29;1071;-77
2022/12/20 01:18:53;;;;;;;4.30;2.80;;;;;;;13.93;52.50;100929.53;672512;29;733;-77
2022/12/20 01:19:16;;;;;;;4.63;2.80;;;;;;;13.96;52.03;100924.31;667286;29;1076;-77
2022/12/20 01:19:36;;;;;;;3.90;2.70;;;;;;;13.96;52.33;100924.31;672345;29;1302;-77
2022/12/20 01:19:57;;;;;;;3.00;2.70;;;;;;;14.03;52.13;100940.16;672377;29;1342;-77
2022/12/20 01:20:18;;;;;;;2.90;2.70;;;;;;;14.03;52.21;100929.66;672486;29;1047;-77
2022/12/20 01:20:38;;;;;;;3.00;2.70;;;;;;;14.04;52.25;100936.66;670336;29;1103;-76
2022/12/20 01:21:04;;;;;;;3.00;2.60;;;;;;;13.93;52.18;100924.28;672412;29;1190;-77
2022/12/20 01:21:26;;;;;;;2.90;2.60;;;;;;;14.03;52.05;100934.91;672372;29;1265;-77
2022/12/20 01:21:47;;;;;;;2.80;2.50;;;;;;;13.99;52.26;100933.97;671838;29;1144;-77
2022/12/20 01:22:07;;;;;;;2.75;2.50;;;;;;;13.96;52.13;100923.44;672316;29;998;-77
2022/12/20 01:22:28;;;;;;;2.67;2.47;;;;;;;13.95;51.92;100921.69;677639;29;1107;-77
2022/12/20 01:22:49;;;;;;;2.50;2.30;;;;;;;13.98;52.00;100933.13;675080;29;1298;-77
2022/12/20 01:23:10;;;;;;;3.00;2.40;;;;;;;14.01;52.09;100934.00;674986;29;1090;-77
2022/12/20 01:23:31;;;;;;;3.20;2.50;;;;;;;13.98;52.16;100933.13;672513;29;990;-77
2022/12/20 01:23:52;;;;;;;3.70;2.50;;;;;;;13.99;52.17;100928.72;677626;29;1189;-77
2022/12/20 01:24:15;;;;;;;3.38;2.50;;;;;;;13.98;52.04;100926.97;674829;29;1888;-77
2022/12/20 01:24:35;;;;;;;3.05;2.50;;;;;;;13.95;52.23;100927.78;675048;29;1126;-77
2022/12/20 01:24:56;;;;;;;2.88;2.45;;;;;;;13.93;52.07;100929.53;674817;29;1266;-77
2022/12/20 01:25:16;;;;;;;3.00;2.40;;;;;;;13.96;52.13;100933.94;674974;29;1233;-77
2022/12/20 01:25:37;;;;;;;3.08;2.38;;;;;;;13.96;52.14;100931.31;669749;29;1177;-77
2022/12/20 01:25:59;;;;;;;3.58;2.45;;;;;;;13.94;51.95;100919.88;672414;29;1123;-77
2022/12/20 01:26:22;;;;;;;2.90;2.60;;;;;;;13.92;52.30;100919.88;674901;29;1043;-77
2022/12/20 01:26:44;;;;;;;2.70;2.40;;;;;;;13.96;52.01;100923.44;674764;29;1961;-77
2022/12/20 01:27:04;;;;;;;2.63;2.40;;;;;;;13.93;52.30;100920.75;672243;29;1305;-77
2022/12/20 01:27:25;;;;;;;2.88;2.40;;;;;;;13.97;52.16;100927.81;669945;29;1142;-77
2022/12/20 01:27:46;;;;;;;3.17;2.58;;;;;;;13.95;51.93;100921.69;674928;29;1909;-77
2022/12/20 01:28:06;;;;;;;2.88;2.58;;;;;;;13.92;52.31;100921.63;672268;29;1207;-77
2022/12/20 01:28:28;;;;;;;2.80;2.60;;;;;;;13.90;52.04;100923.34;672504;29;1227;-77
2022/12/20 01:28:52;;;;;;;2.67;2.47;;;;;;;13.93;52.17;100934.75;669802;29;1272;-77
2022/12/20 01:29:13;;;;;;;2.90;2.60;;;;;;;13.90;52.06;100926.81;672352;29;2006;-77
2022/12/20 01:29:33;;;;;;;2.90;2.50;;;;;;;13.92;52.18;100925.13;672450;29;875;-77
2022/12/20 01:29:54;;;;;;;2.60;2.40;;;;;;;13.91;52.10;100928.63;675162;29;749;-77
2022/12/20 01:30:15;;;;;;;2.60;2.40;;;;;;;13.88;52.43;100922.44;672368;29;1166;-77
2022/12/20 01:30:39;;;;;;;2.60;2.40;;;;;;;13.85;52.31;100926.75;674847;29;1509;-77
2022/12/20 01:31:00;;;;;;;2.65;2.40;;;;;;;13.81;52.50;100924.94;675017;29;1059;-77
2022/12/20 01:31:21;;;;;;;2.55;2.35;;;;;;;13.75;52.30;100918.72;675089;29;1189;-77
2022/12/20 01:31:43;;;;;;;2.80;2.50;;;;;;;13.77;52.32;100919.63;674857;29;1266;-77
2022/12/20 01:32:04;;;;;;;3.20;2.70;;;;;;;13.80;52.62;100917.94;672356;29;1167;-77
2022/12/20 01:32:24;;;;;;;3.85;3.10;;;;;;;13.86;52.37;100930.28;672406;29;1230;-77
2022/12/20 01:32:45;;;;;;;4.38;3.15;;;;;;;13.83;52.40;100917.97;677504;29;868;-77
2022/12/20 01:33:05;;;;;;;3.63;3.00;;;;;;;13.87;52.38;100924.16;672256;29;1033;-78
2022/12/20 01:33:27;;;;;;;2.75;2.45;;;;;;;13.88;52.41;100923.31;669906;29;1178;-77
2022/12/20 01:33:49;;;;;;;2.60;2.40;;;;;;;13.89;52.10;100918.94;674974;29;1366;-77
2022/12/20 01:34:10;;;;;;;2.72;2.53;;;;;;;13.90;52.09;100926.81;672479;29;987;-77
2022/12/20 01:34:31;;;;;;;2.70;2.50;;;;;;;13.98;52.13;100933.13;675002;29;984;-76
2022/12/20 01:34:53;;;;;;;2.80;2.60;;;;;;;13.91;52.15;100918.13;675137;29;722;-77
2022/12/20 01:35:14;;;;;;;2.85;2.58;;;;;;;13.90;52.19;100918.97;674840;29;1133;-77
2022/12/20 01:35:35;;;;;;;3.10;2.80;;;;;;;13.89;52.24;100916.31;674982;29;996;-77
2022/12/20 01:36:02;;;;;;;3.45;2.65;;;;;;;13.94;51.99;100920.78;674697;29;1065;-77
2022/12/20 01:36:26;;;;;;;3.65;2.47;;;;;;;13.92;52.35;100913.75;669685;29;1290;-77
2022/12/20 01:36:48;;;;;;;3.63;2.30;;;;;;;13.94;52.09;100920.78;669779;29;1294;-77
2022/12/20 01:37:09;;;;;;;2.80;2.50;;;;;;;13.89;52.02;100911.94;670277;29;1070;-77
2022/12/20 01:37:30;;;;;;;2.60;2.40;;;;;;;13.92;52.39;100917.25;670487;29;1227;-77
2022/12/20 01:37:51;;;;;;;2.70;2.40;;;;;;;13.87;52.07;100907.56;672847;29;1356;-77
2022/12/20 01:38:11;;;;;;;3.42;2.33;;;;;;;13.90;51.94;100918.09;672831;29;1237;-77
2022/12/20 01:38:33;;;;;;;3.55;2.40;;;;;;;13.91;52.12;100920.75;667741;29;1112;-77
2022/12/20 01:39:05;;;;;;;2.95;2.40;;;;;;;13.90;52.13;100911.09;670416;29;1191;-77
2022/12/20 01:39:26;;;;;;;2.70;2.50;;;;;;;13.85;52.30;100900.53;672920;29;1167;-77
2022/12/20 01:39:46;;;;;;;2.77;2.57;;;;;;;13.97;52.08;100919.97;675627;29;808;-77
2022/12/20 01:40:09;;;;;;;2.80;2.60;;;;;;;13.93;52.17;100912.88;667701;29;1275;-77
2022/12/20 01:40:30;;;;;;;3.08;2.72;;;;;;;13.96;52.07;100910.31;673068;29;1271;-77
2022/12/20 01:40:54;;;;;;;3.72;2.75;;;;;;;13.93;51.79;100905.91;673015;29;805;-77
2022/12/20 01:41:20;;;;;;;4.85;3.00;;;;;;;14.00;51.76;100911.25;675547;29;987;-77
2022/12/20 01:41:42;;;;;;;4.60;2.80;;;;;;;14.00;51.92;100908.63;675355;29;1194;-77
2022/12/20 01:42:04;;;;;;;3.38;2.50;;;;;;;13.96;51.83;100905.94;675511;29;1103;-77
2022/12/20 01:42:24;;;;;;;2.88;2.40;;;;;;;13.98;51.82;100900.72;675599;29;899;-77
2022/12/20 01:42:45;;;;;;;3.08;2.50;;;;;;;13.94;51.97;100897.16;670264;29;1075;-77
2022/12/20 01:43:11;;;;;;;3.00;2.50;;;;;;;14.01;51.92;100911.25;672753;29;1266;-77